sensor_id;sensor_type;location;lat;lon;timestamp;P1;durP1;ratioP1;P2;durP2;ratioP2
15764;SDS011;7983;50.744;7.086;2024-02-28T00:00:12;31.00;;;20.17;;
15764;SDS011;7983;50.744;7.086;2024-02-28T00:02:37;32.90;;;19.53;;
15764;SDS011;7983;50.744;7.086;2024-02-28T00:05:06;30.57;;;19.23;;
15764;SDS011;7983;50.744;7.086;2024-02-28T00:07:34;31.53;;;19.43;;
15764;SDS011;7983;50.744;7.086;2024-02-28T00:09:59;32.23;;;20.40;;
15764;SDS011;7983;50.744;7.086;2024-02-28T00:12:25;33.93;;;19.90;;
15764;SDS011;7983;50.744;7.086;2024-02-28T00:14:51;30.23;;;19.10;;
15764;SDS011;7983;50.744;7.086;2024-02-28T00:17:17;31.53;;;19.07;;
15764;SDS011;7983;50.744;7.086;2024-02-28T00:19:42;31.47;;;19.37;;
15764;SDS011;7983;50.744;7.086;2024-02-28T00:22:08;33.13;;;19.63;;
15764;SDS011;7983;50.744;7.086;2024-02-28T00:24:34;30.30;;;19.53;;
15764;SDS011;7983;50.744;7.086;2024-02-28T00:27:00;30.10;;;18.70;;
15764;SDS011;7983;50.744;7.086;2024-02-28T00:29:28;33.07;;;19.80;;
15764;SDS011;7983;50.744;7.086;2024-02-28T00:31:53;30.17;;;20.00;;
15764;SDS011;7983;50.744;7.086;2024-02-28T00:34:21;35.00;;;20.60;;
15764;SDS011;7983;50.744;7.086;2024-02-28T00:36:47;35.00;;;21.03;;
15764;SDS011;7983;50.744;7.086;2024-02-28T00:39:15;30.77;;;19.13;;
15764;SDS011;7983;50.744;7.086;2024-02-28T00:41:40;29.97;;;18.77;;
15764;SDS011;7983;50.744;7.086;2024-02-28T00:44:06;35.37;;;19.87;;
15764;SDS011;7983;50.744;7.086;2024-02-28T00:46:31;34.87;;;19.90;;
15764;SDS011;7983;50.744;7.086;2024-02-28T00:48:59;34.73;;;20.03;;
15764;SDS011;7983;50.744;7.086;2024-02-28T00:51:25;32.00;;;18.83;;
15764;SDS011;7983;50.744;7.086;2024-02-28T00:53:50;32.13;;;19.80;;
15764;SDS011;7983;50.744;7.086;2024-02-28T00:56:16;32.33;;;19.73;;
15764;SDS011;7983;50.744;7.086;2024-02-28T00:58:43;32.37;;;18.63;;
15764;SDS011;7983;50.744;7.086;2024-02-28T01:01:09;34.90;;;20.87;;
15764;SDS011;7983;50.744;7.086;2024-02-28T01:03:35;32.30;;;20.63;;
15764;SDS011;7983;50.744;7.086;2024-02-28T01:06:00;31.60;;;19.10;;
15764;SDS011;7983;50.744;7.086;2024-02-28T01:08:30;31.83;;;19.17;;
15764;SDS011;7983;50.744;7.086;2024-02-28T01:10:56;29.87;;;18.90;;
15764;SDS011;7983;50.744;7.086;2024-02-28T01:13:22;30.87;;;18.77;;
15764;SDS011;7983;50.744;7.086;2024-02-28T01:15:48;36.30;;;21.67;;
15764;SDS011;7983;50.744;7.086;2024-02-28T01:18:13;33.93;;;21.23;;
15764;SDS011;7983;50.744;7.086;2024-02-28T01:20:39;33.23;;;19.83;;
15764;SDS011;7983;50.744;7.086;2024-02-28T01:23:05;34.37;;;21.00;;
15764;SDS011;7983;50.744;7.086;2024-02-28T01:25:48;33.73;;;20.03;;
15764;SDS011;7983;50.744;7.086;2024-02-28T01:28:14;34.03;;;20.07;;
15764;SDS011;7983;50.744;7.086;2024-02-28T01:30:39;33.77;;;20.57;;
15764;SDS011;7983;50.744;7.086;2024-02-28T01:33:05;33.87;;;19.70;;
15764;SDS011;7983;50.744;7.086;2024-02-28T01:35:31;33.77;;;20.67;;
15764;SDS011;7983;50.744;7.086;2024-02-28T01:37:56;33.93;;;20.67;;
15764;SDS011;7983;50.744;7.086;2024-02-28T01:40:24;33.43;;;20.53;;
15764;SDS011;7983;50.744;7.086;2024-02-28T01:42:50;32.10;;;19.13;;
15764;SDS011;7983;50.744;7.086;2024-02-28T01:45:15;35.03;;;20.57;;
15764;SDS011;7983;50.744;7.086;2024-02-28T01:47:41;34.17;;;20.10;;
15764;SDS011;7983;50.744;7.086;2024-02-28T01:50:09;32.03;;;19.90;;
15764;SDS011;7983;50.744;7.086;2024-02-28T01:52:37;32.37;;;19.63;;
15764;SDS011;7983;50.744;7.086;2024-02-28T01:55:08;34.40;;;19.80;;
15764;SDS011;7983;50.744;7.086;2024-02-28T01:57:37;36.47;;;21.73;;
15764;SDS011;7983;50.744;7.086;2024-02-28T02:00:04;37.53;;;23.40;;
15764;SDS011;7983;50.744;7.086;2024-02-28T02:02:31;34.60;;;21.23;;
15764;SDS011;7983;50.744;7.086;2024-02-28T02:04:56;32.53;;;20.53;;
15764;SDS011;7983;50.744;7.086;2024-02-28T02:07:23;36.57;;;21.77;;
15764;SDS011;7983;50.744;7.086;2024-02-28T02:09:56;35.73;;;21.03;;
15764;SDS011;7983;50.744;7.086;2024-02-28T02:12:24;35.77;;;20.83;;
15764;SDS011;7983;50.744;7.086;2024-02-28T02:14:49;33.60;;;20.37;;
15764;SDS011;7983;50.744;7.086;2024-02-28T02:17:17;32.53;;;20.07;;
15764;SDS011;7983;50.744;7.086;2024-02-28T02:19:45;35.90;;;21.00;;
15764;SDS011;7983;50.744;7.086;2024-02-28T02:22:11;34.10;;;19.70;;
15764;SDS011;7983;50.744;7.086;2024-02-28T02:24:39;32.70;;;20.20;;
15764;SDS011;7983;50.744;7.086;2024-02-28T02:27:05;34.17;;;20.57;;
15764;SDS011;7983;50.744;7.086;2024-02-28T02:29:32;37.33;;;20.37;;
15764;SDS011;7983;50.744;7.086;2024-02-28T02:31:58;37.07;;;21.53;;
15764;SDS011;7983;50.744;7.086;2024-02-28T02:34:24;33.83;;;20.53;;
15764;SDS011;7983;50.744;7.086;2024-02-28T02:36:49;37.83;;;20.77;;
15764;SDS011;7983;50.744;7.086;2024-02-28T02:39:15;31.60;;;18.73;;
15764;SDS011;7983;50.744;7.086;2024-02-28T02:41:43;31.50;;;19.67;;
15764;SDS011;7983;50.744;7.086;2024-02-28T02:44:08;34.50;;;19.93;;
15764;SDS011;7983;50.744;7.086;2024-02-28T02:46:34;33.13;;;19.40;;
15764;SDS011;7983;50.744;7.086;2024-02-28T02:49:04;35.83;;;20.40;;
15764;SDS011;7983;50.744;7.086;2024-02-28T02:51:30;34.03;;;20.40;;
15764;SDS011;7983;50.744;7.086;2024-02-28T02:53:58;33.03;;;20.33;;
15764;SDS011;7983;50.744;7.086;2024-02-28T02:56:26;32.17;;;20.00;;
15764;SDS011;7983;50.744;7.086;2024-02-28T02:58:54;33.50;;;19.20;;
15764;SDS011;7983;50.744;7.086;2024-02-28T03:01:20;31.43;;;19.53;;
15764;SDS011;7983;50.744;7.086;2024-02-28T03:03:47;30.17;;;18.67;;
15764;SDS011;7983;50.744;7.086;2024-02-28T03:06:13;37.13;;;20.00;;
15764;SDS011;7983;50.744;7.086;2024-02-28T03:08:39;31.77;;;18.87;;
15764;SDS011;7983;50.744;7.086;2024-02-28T03:11:04;33.00;;;19.83;;
15764;SDS011;7983;50.744;7.086;2024-02-28T03:13:33;34.27;;;20.03;;
15764;SDS011;7983;50.744;7.086;2024-02-28T03:16:05;34.07;;;19.70;;
15764;SDS011;7983;50.744;7.086;2024-02-28T03:18:31;34.37;;;20.67;;
15764;SDS011;7983;50.744;7.086;2024-02-28T03:20:57;30.47;;;18.23;;
15764;SDS011;7983;50.744;7.086;2024-02-28T03:23:27;30.47;;;18.73;;
15764;SDS011;7983;50.744;7.086;2024-02-28T03:25:53;32.83;;;19.33;;
15764;SDS011;7983;50.744;7.086;2024-02-28T03:28:19;35.90;;;20.63;;
15764;SDS011;7983;50.744;7.086;2024-02-28T03:30:47;33.77;;;19.00;;
15764;SDS011;7983;50.744;7.086;2024-02-28T03:33:17;34.80;;;19.97;;
15764;SDS011;7983;50.744;7.086;2024-02-28T03:35:45;33.33;;;19.43;;
15764;SDS011;7983;50.744;7.086;2024-02-28T03:38:13;31.90;;;18.57;;
15764;SDS011;7983;50.744;7.086;2024-02-28T03:40:39;30.27;;;18.47;;
15764;SDS011;7983;50.744;7.086;2024-02-28T03:43:04;31.87;;;18.03;;
15764;SDS011;7983;50.744;7.086;2024-02-28T03:45:30;28.60;;;17.57;;
15764;SDS011;7983;50.744;7.086;2024-02-28T03:47:55;30.27;;;17.77;;
15764;SDS011;7983;50.744;7.086;2024-02-28T03:50:21;31.07;;;18.23;;
15764;SDS011;7983;50.744;7.086;2024-02-28T03:52:47;34.63;;;18.63;;
15764;SDS011;7983;50.744;7.086;2024-02-28T03:55:12;30.30;;;18.87;;
15764;SDS011;7983;50.744;7.086;2024-02-28T03:57:38;35.10;;;18.00;;
15764;SDS011;7983;50.744;7.086;2024-02-28T04:00:04;29.23;;;17.10;;
15764;SDS011;7983;50.744;7.086;2024-02-28T04:02:30;28.63;;;18.40;;
15764;SDS011;7983;50.744;7.086;2024-02-28T04:04:57;29.70;;;17.23;;
15764;SDS011;7983;50.744;7.086;2024-02-28T04:07:26;31.53;;;18.67;;
15764;SDS011;7983;50.744;7.086;2024-02-28T04:09:51;30.57;;;18.47;;
15764;SDS011;7983;50.744;7.086;2024-02-28T04:12:17;29.13;;;17.47;;
15764;SDS011;7983;50.744;7.086;2024-02-28T04:14:42;30.17;;;17.87;;
15764;SDS011;7983;50.744;7.086;2024-02-28T04:17:10;32.10;;;19.27;;
15764;SDS011;7983;50.744;7.086;2024-02-28T04:19:36;29.23;;;18.10;;
15764;SDS011;7983;50.744;7.086;2024-02-28T04:22:04;28.73;;;17.80;;
15764;SDS011;7983;50.744;7.086;2024-02-28T04:24:30;29.07;;;17.93;;
15764;SDS011;7983;50.744;7.086;2024-02-28T04:26:57;31.57;;;18.00;;
15764;SDS011;7983;50.744;7.086;2024-02-28T04:29:24;30.50;;;17.90;;
15764;SDS011;7983;50.744;7.086;2024-02-28T04:31:50;30.23;;;17.93;;
15764;SDS011;7983;50.744;7.086;2024-02-28T04:34:16;31.80;;;18.70;;
15764;SDS011;7983;50.744;7.086;2024-02-28T04:36:41;29.87;;;18.33;;
15764;SDS011;7983;50.744;7.086;2024-02-28T04:39:07;30.53;;;17.60;;
15764;SDS011;7983;50.744;7.086;2024-02-28T04:41:33;31.67;;;18.57;;
15764;SDS011;7983;50.744;7.086;2024-02-28T04:43:59;29.47;;;17.33;;
15764;SDS011;7983;50.744;7.086;2024-02-28T04:46:24;34.73;;;19.97;;
15764;SDS011;7983;50.744;7.086;2024-02-28T04:48:52;32.87;;;19.03;;
15764;SDS011;7983;50.744;7.086;2024-02-28T04:51:20;31.37;;;19.03;;
15764;SDS011;7983;50.744;7.086;2024-02-28T04:53:51;32.47;;;17.60;;
15764;SDS011;7983;50.744;7.086;2024-02-28T04:56:21;29.07;;;17.27;;
15764;SDS011;7983;50.744;7.086;2024-02-28T04:58:46;29.77;;;17.60;;
15764;SDS011;7983;50.744;7.086;2024-02-28T05:01:12;31.30;;;17.40;;
15764;SDS011;7983;50.744;7.086;2024-02-28T05:03:38;30.93;;;17.63;;
15764;SDS011;7983;50.744;7.086;2024-02-28T05:06:03;30.20;;;18.07;;
15764;SDS011;7983;50.744;7.086;2024-02-28T05:08:31;31.47;;;17.73;;
15764;SDS011;7983;50.744;7.086;2024-02-28T05:10:57;32.57;;;19.57;;
15764;SDS011;7983;50.744;7.086;2024-02-28T05:13:22;33.77;;;19.03;;
15764;SDS011;7983;50.744;7.086;2024-02-28T05:15:50;29.80;;;17.93;;
15764;SDS011;7983;50.744;7.086;2024-02-28T05:18:16;32.40;;;19.57;;
15764;SDS011;7983;50.744;7.086;2024-02-28T05:20:42;35.10;;;20.53;;
15764;SDS011;7983;50.744;7.086;2024-02-28T05:23:07;37.17;;;20.13;;
15764;SDS011;7983;50.744;7.086;2024-02-28T05:25:36;34.03;;;20.03;;
15764;SDS011;7983;50.744;7.086;2024-02-28T05:28:04;31.20;;;18.80;;
15764;SDS011;7983;50.744;7.086;2024-02-28T05:30:29;34.03;;;19.23;;
15764;SDS011;7983;50.744;7.086;2024-02-28T05:32:55;33.50;;;19.03;;
15764;SDS011;7983;50.744;7.086;2024-02-28T05:35:21;29.33;;;17.73;;
15764;SDS011;7983;50.744;7.086;2024-02-28T05:37:46;31.20;;;18.07;;
15764;SDS011;7983;50.744;7.086;2024-02-28T05:40:12;29.97;;;17.57;;
15764;SDS011;7983;50.744;7.086;2024-02-28T05:42:38;30.10;;;17.53;;
15764;SDS011;7983;50.744;7.086;2024-02-28T05:45:05;33.17;;;19.00;;
15764;SDS011;7983;50.744;7.086;2024-02-28T05:47:31;31.13;;;18.57;;
15764;SDS011;7983;50.744;7.086;2024-02-28T05:49:57;29.97;;;18.83;;
15764;SDS011;7983;50.744;7.086;2024-02-28T05:52:25;31.63;;;17.53;;
15764;SDS011;7983;50.744;7.086;2024-02-28T05:54:52;31.60;;;18.00;;
15764;SDS011;7983;50.744;7.086;2024-02-28T05:57:22;31.20;;;18.50;;
15764;SDS011;7983;50.744;7.086;2024-02-28T05:59:50;31.30;;;18.60;;
15764;SDS011;7983;50.744;7.086;2024-02-28T06:02:16;31.13;;;18.40;;
15764;SDS011;7983;50.744;7.086;2024-02-28T06:04:41;32.67;;;19.60;;
15764;SDS011;7983;50.744;7.086;2024-02-28T06:07:09;32.57;;;18.60;;
15764;SDS011;7983;50.744;7.086;2024-02-28T06:09:35;32.40;;;19.20;;
15764;SDS011;7983;50.744;7.086;2024-02-28T06:12:00;31.83;;;18.40;;
15764;SDS011;7983;50.744;7.086;2024-02-28T06:14:31;29.40;;;18.30;;
15764;SDS011;7983;50.744;7.086;2024-02-28T06:16:57;31.67;;;19.23;;
15764;SDS011;7983;50.744;7.086;2024-02-28T06:19:22;36.30;;;20.97;;
15764;SDS011;7983;50.744;7.086;2024-02-28T06:21:48;32.57;;;18.23;;
15764;SDS011;7983;50.744;7.086;2024-02-28T06:24:17;31.67;;;18.03;;
15764;SDS011;7983;50.744;7.086;2024-02-28T06:26:43;33.83;;;19.27;;
15764;SDS011;7983;50.744;7.086;2024-02-28T06:29:08;32.00;;;18.17;;
15764;SDS011;7983;50.744;7.086;2024-02-28T06:31:36;29.17;;;17.63;;
15764;SDS011;7983;50.744;7.086;2024-02-28T06:34:04;32.67;;;18.07;;
15764;SDS011;7983;50.744;7.086;2024-02-28T06:36:30;32.63;;;19.17;;
15764;SDS011;7983;50.744;7.086;2024-02-28T06:38:56;32.43;;;18.10;;
15764;SDS011;7983;50.744;7.086;2024-02-28T06:41:22;28.57;;;17.93;;
15764;SDS011;7983;50.744;7.086;2024-02-28T06:43:48;31.17;;;17.57;;
15764;SDS011;7983;50.744;7.086;2024-02-28T06:46:16;31.30;;;18.67;;
15764;SDS011;7983;50.744;7.086;2024-02-28T06:48:42;33.23;;;19.73;;
15764;SDS011;7983;50.744;7.086;2024-02-28T06:51:10;32.67;;;19.53;;
15764;SDS011;7983;50.744;7.086;2024-02-28T06:53:38;31.90;;;18.90;;
15764;SDS011;7983;50.744;7.086;2024-02-28T06:56:04;30.23;;;18.10;;
15764;SDS011;7983;50.744;7.086;2024-02-28T06:58:30;29.73;;;17.23;;
15764;SDS011;7983;50.744;7.086;2024-02-28T07:00:58;30.20;;;18.37;;
15764;SDS011;7983;50.744;7.086;2024-02-28T07:03:28;29.60;;;18.20;;
15764;SDS011;7983;50.744;7.086;2024-02-28T07:05:59;28.63;;;17.70;;
15764;SDS011;7983;50.744;7.086;2024-02-28T07:08:24;31.80;;;17.87;;
15764;SDS011;7983;50.744;7.086;2024-02-28T07:10:50;34.43;;;19.47;;
15764;SDS011;7983;50.744;7.086;2024-02-28T07:13:19;31.40;;;18.47;;
15764;SDS011;7983;50.744;7.086;2024-02-28T07:15:46;32.53;;;18.80;;
15764;SDS011;7983;50.744;7.086;2024-02-28T07:18:12;33.27;;;19.67;;
15764;SDS011;7983;50.744;7.086;2024-02-28T07:20:37;30.43;;;18.73;;
15764;SDS011;7983;50.744;7.086;2024-02-28T07:23:05;36.43;;;21.47;;
15764;SDS011;7983;50.744;7.086;2024-02-28T07:25:31;39.77;;;23.00;;
15764;SDS011;7983;50.744;7.086;2024-02-28T07:27:57;41.00;;;23.67;;
15764;SDS011;7983;50.744;7.086;2024-02-28T07:30:26;38.77;;;22.87;;
15764;SDS011;7983;50.744;7.086;2024-02-28T07:32:51;36.73;;;21.83;;
15764;SDS011;7983;50.744;7.086;2024-02-28T07:35:17;36.57;;;21.77;;
15764;SDS011;7983;50.744;7.086;2024-02-28T07:37:43;33.67;;;20.70;;
15764;SDS011;7983;50.744;7.086;2024-02-28T07:40:09;33.23;;;19.33;;
15764;SDS011;7983;50.744;7.086;2024-02-28T07:42:38;32.40;;;20.10;;
15764;SDS011;7983;50.744;7.086;2024-02-28T07:45:03;29.40;;;18.97;;
15764;SDS011;7983;50.744;7.086;2024-02-28T07:47:33;34.10;;;20.13;;
15764;SDS011;7983;50.744;7.086;2024-02-28T07:50:02;31.87;;;19.40;;
15764;SDS011;7983;50.744;7.086;2024-02-28T07:52:27;30.97;;;18.97;;
15764;SDS011;7983;50.744;7.086;2024-02-28T07:54:53;29.83;;;18.30;;
15764;SDS011;7983;50.744;7.086;2024-02-28T07:57:21;29.63;;;18.00;;
15764;SDS011;7983;50.744;7.086;2024-02-28T07:59:46;31.23;;;19.00;;
15764;SDS011;7983;50.744;7.086;2024-02-28T08:02:12;27.30;;;17.07;;
15764;SDS011;7983;50.744;7.086;2024-02-28T08:04:38;35.27;;;21.97;;
15764;SDS011;7983;50.744;7.086;2024-02-28T08:07:04;32.17;;;20.47;;
15764;SDS011;7983;50.744;7.086;2024-02-28T08:09:33;32.47;;;20.20;;
15764;SDS011;7983;50.744;7.086;2024-02-28T08:11:59;32.53;;;19.83;;
15764;SDS011;7983;50.744;7.086;2024-02-28T08:14:25;30.13;;;18.50;;
15764;SDS011;7983;50.744;7.086;2024-02-28T08:16:50;30.00;;;18.13;;
15764;SDS011;7983;50.744;7.086;2024-02-28T08:19:16;33.17;;;20.13;;
15764;SDS011;7983;50.744;7.086;2024-02-28T08:21:42;31.43;;;18.57;;
15764;SDS011;7983;50.744;7.086;2024-02-28T08:24:08;29.07;;;18.43;;
15764;SDS011;7983;50.744;7.086;2024-02-28T08:26:34;29.20;;;18.33;;
15764;SDS011;7983;50.744;7.086;2024-02-28T08:29:00;31.67;;;18.27;;
15764;SDS011;7983;50.744;7.086;2024-02-28T08:31:26;32.20;;;19.20;;
15764;SDS011;7983;50.744;7.086;2024-02-28T08:33:55;31.70;;;18.60;;
15764;SDS011;7983;50.744;7.086;2024-02-28T08:36:20;33.43;;;19.53;;
15764;SDS011;7983;50.744;7.086;2024-02-28T08:38:46;30.63;;;19.07;;
15764;SDS011;7983;50.744;7.086;2024-02-28T08:41:14;32.07;;;19.20;;
15764;SDS011;7983;50.744;7.086;2024-02-28T08:43:42;32.00;;;19.33;;
15764;SDS011;7983;50.744;7.086;2024-02-28T08:46:13;32.50;;;18.87;;
15764;SDS011;7983;50.744;7.086;2024-02-28T08:48:43;31.87;;;19.27;;
15764;SDS011;7983;50.744;7.086;2024-02-28T08:51:11;31.93;;;18.70;;
15764;SDS011;7983;50.744;7.086;2024-02-28T08:53:37;26.97;;;17.57;;
15764;SDS011;7983;50.744;7.086;2024-02-28T08:56:02;29.87;;;18.77;;
15764;SDS011;7983;50.744;7.086;2024-02-28T08:58:29;30.83;;;19.80;;
15764;SDS011;7983;50.744;7.086;2024-02-28T09:00:57;29.80;;;19.43;;
15764;SDS011;7983;50.744;7.086;2024-02-28T09:03:23;30.23;;;19.73;;
15764;SDS011;7983;50.744;7.086;2024-02-28T09:05:53;35.27;;;20.60;;
15764;SDS011;7983;50.744;7.086;2024-02-28T09:08:19;34.60;;;19.97;;
15764;SDS011;7983;50.744;7.086;2024-02-28T09:10:47;32.57;;;19.87;;
15764;SDS011;7983;50.744;7.086;2024-02-28T09:13:13;30.23;;;18.70;;
15764;SDS011;7983;50.744;7.086;2024-02-28T09:15:38;30.83;;;19.63;;
15764;SDS011;7983;50.744;7.086;2024-02-28T09:18:04;34.63;;;21.47;;
15764;SDS011;7983;50.744;7.086;2024-02-28T09:20:30;32.38;;;20.38;;
15764;SDS011;7983;50.744;7.086;2024-02-28T09:22:56;31.30;;;19.80;;
15764;SDS011;7983;50.744;7.086;2024-02-28T09:25:21;29.80;;;17.83;;
15764;SDS011;7983;50.744;7.086;2024-02-28T09:27:49;27.43;;;17.87;;
15764;SDS011;7983;50.744;7.086;2024-02-28T09:30:17;30.67;;;19.40;;
15764;SDS011;7983;50.744;7.086;2024-02-28T09:32:44;30.10;;;19.77;;
15764;SDS011;7983;50.744;7.086;2024-02-28T09:35:10;29.10;;;18.05;;
15764;SDS011;7983;50.744;7.086;2024-02-28T09:37:36;31.08;;;18.95;;
15764;SDS011;7983;50.744;7.086;2024-02-28T09:40:07;29.87;;;19.50;;
15764;SDS011;7983;50.744;7.086;2024-02-28T09:42:34;31.58;;;20.30;;
15764;SDS011;7983;50.744;7.086;2024-02-28T09:45:03;30.05;;;19.58;;
15764;SDS011;7983;50.744;7.086;2024-02-28T09:47:29;29.50;;;19.88;;
15764;SDS011;7983;50.744;7.086;2024-02-28T09:50:00;28.55;;;18.80;;
15764;SDS011;7983;50.744;7.086;2024-02-28T09:52:28;26.55;;;18.70;;
15764;SDS011;7983;50.744;7.086;2024-02-28T09:54:57;25.52;;;17.85;;
15764;SDS011;7983;50.744;7.086;2024-02-28T09:57:23;25.35;;;18.25;;
15764;SDS011;7983;50.744;7.086;2024-02-28T09:59:53;25.60;;;17.50;;
15764;SDS011;7983;50.744;7.086;2024-02-28T10:02:23;25.80;;;18.73;;
15764;SDS011;7983;50.744;7.086;2024-02-28T10:04:50;27.70;;;18.13;;
15764;SDS011;7983;50.744;7.086;2024-02-28T10:07:19;26.30;;;18.38;;
15764;SDS011;7983;50.744;7.086;2024-02-28T10:09:45;25.30;;;17.58;;
15764;SDS011;7983;50.744;7.086;2024-02-28T10:12:13;25.05;;;17.10;;
15764;SDS011;7983;50.744;7.086;2024-02-28T10:14:39;24.52;;;17.88;;
15764;SDS011;7983;50.744;7.086;2024-02-28T10:17:07;28.25;;;19.67;;
15764;SDS011;7983;50.744;7.086;2024-02-28T10:19:35;27.42;;;19.15;;
15764;SDS011;7983;50.744;7.086;2024-02-28T10:22:01;33.33;;;20.95;;
15764;SDS011;7983;50.744;7.086;2024-02-28T10:24:27;27.30;;;18.83;;
15764;SDS011;7983;50.744;7.086;2024-02-28T10:26:53;28.45;;;19.80;;
15764;SDS011;7983;50.744;7.086;2024-02-28T10:29:25;25.90;;;19.15;;
15764;SDS011;7983;50.744;7.086;2024-02-28T10:31:56;27.08;;;19.23;;
15764;SDS011;7983;50.744;7.086;2024-02-28T10:34:28;26.80;;;18.23;;
15764;SDS011;7983;50.744;7.086;2024-02-28T10:36:56;25.77;;;18.73;;
15764;SDS011;7983;50.744;7.086;2024-02-28T10:39:28;29.67;;;20.70;;
15764;SDS011;7983;50.744;7.086;2024-02-28T10:41:54;25.77;;;17.75;;
15764;SDS011;7983;50.744;7.086;2024-02-28T10:44:22;27.23;;;19.13;;
15764;SDS011;7983;50.744;7.086;2024-02-28T10:46:49;25.02;;;17.27;;
15764;SDS011;7983;50.744;7.086;2024-02-28T10:49:20;27.90;;;18.75;;
15764;SDS011;7983;50.744;7.086;2024-02-28T10:51:48;26.38;;;19.17;;
15764;SDS011;7983;50.744;7.086;2024-02-28T10:54:17;24.88;;;18.10;;
15764;SDS011;7983;50.744;7.086;2024-02-28T10:56:46;24.42;;;17.80;;
15764;SDS011;7983;50.744;7.086;2024-02-28T10:59:13;22.23;;;16.13;;
15764;SDS011;7983;50.744;7.086;2024-02-28T11:01:39;25.67;;;17.20;;
15764;SDS011;7983;50.744;7.086;2024-02-28T11:04:10;23.17;;;16.23;;
15764;SDS011;7983;50.744;7.086;2024-02-28T11:06:48;26.38;;;16.08;;
15764;SDS011;7983;50.744;7.086;2024-02-28T11:09:18;23.90;;;15.90;;
15764;SDS011;7983;50.744;7.086;2024-02-28T11:11:47;24.73;;;16.75;;
15764;SDS011;7983;50.744;7.086;2024-02-28T11:14:18;23.42;;;16.23;;
15764;SDS011;7983;50.744;7.086;2024-02-28T11:17:10;21.77;;;16.33;;
15764;SDS011;7983;50.744;7.086;2024-02-28T11:19:36;24.80;;;17.95;;
15764;SDS011;7983;50.744;7.086;2024-02-28T11:22:04;26.33;;;18.85;;
15764;SDS011;7983;50.744;7.086;2024-02-28T11:24:31;27.60;;;19.15;;
15764;SDS011;7983;50.744;7.086;2024-02-28T11:27:01;26.58;;;18.13;;
15764;SDS011;7983;50.744;7.086;2024-02-28T11:29:30;25.92;;;18.45;;
15764;SDS011;7983;50.744;7.086;2024-02-28T11:31:58;24.42;;;17.08;;
15764;SDS011;7983;50.744;7.086;2024-02-28T11:34:27;24.60;;;16.83;;
15764;SDS011;7983;50.744;7.086;2024-02-28T11:36:53;24.67;;;18.65;;
15764;SDS011;7983;50.744;7.086;2024-02-28T11:39:23;25.67;;;17.50;;
15764;SDS011;7983;50.744;7.086;2024-02-28T11:41:52;26.30;;;18.02;;
15764;SDS011;7983;50.744;7.086;2024-02-28T11:44:20;22.98;;;16.33;;
15764;SDS011;7983;50.744;7.086;2024-02-28T11:46:46;24.08;;;17.05;;
15764;SDS011;7983;50.744;7.086;2024-02-28T11:49:13;27.05;;;18.15;;
15764;SDS011;7983;50.744;7.086;2024-02-28T11:51:42;22.45;;;16.60;;
15764;SDS011;7983;50.744;7.086;2024-02-28T11:54:14;25.20;;;17.40;;
15764;SDS011;7983;50.744;7.086;2024-02-28T11:56:44;24.27;;;17.40;;
15764;SDS011;7983;50.744;7.086;2024-02-28T11:59:13;24.05;;;16.88;;
15764;SDS011;7983;50.744;7.086;2024-02-28T12:01:42;23.13;;;16.23;;
15764;SDS011;7983;50.744;7.086;2024-02-28T12:04:11;24.48;;;16.75;;
15764;SDS011;7983;50.744;7.086;2024-02-28T12:06:38;25.00;;;16.90;;
15764;SDS011;7983;50.744;7.086;2024-02-28T12:09:08;22.98;;;16.90;;
15764;SDS011;7983;50.744;7.086;2024-02-28T12:11:35;24.88;;;16.98;;
15764;SDS011;7983;50.744;7.086;2024-02-28T12:14:05;22.95;;;17.15;;
15764;SDS011;7983;50.744;7.086;2024-02-28T12:16:36;22.73;;;16.20;;
15764;SDS011;7983;50.744;7.086;2024-02-28T12:19:11;22.65;;;15.82;;
15764;SDS011;7983;50.744;7.086;2024-02-28T12:21:38;24.35;;;16.90;;
15764;SDS011;7983;50.744;7.086;2024-02-28T12:24:07;23.55;;;16.67;;
15764;SDS011;7983;50.744;7.086;2024-02-28T12:26:34;21.55;;;15.95;;
15764;SDS011;7983;50.744;7.086;2024-02-28T12:29:00;22.15;;;16.08;;
15764;SDS011;7983;50.744;7.086;2024-02-28T12:31:26;22.45;;;16.70;;
15764;SDS011;7983;50.744;7.086;2024-02-28T12:33:55;21.10;;;16.25;;
15764;SDS011;7983;50.744;7.086;2024-02-28T12:36:23;19.92;;;14.98;;
15764;SDS011;7983;50.744;7.086;2024-02-28T12:38:51;21.60;;;15.48;;
15764;SDS011;7983;50.744;7.086;2024-02-28T12:41:19;20.88;;;14.48;;
15764;SDS011;7983;50.744;7.086;2024-02-28T12:43:47;20.45;;;14.88;;
15764;SDS011;7983;50.744;7.086;2024-02-28T12:46:16;21.00;;;14.35;;
15764;SDS011;7983;50.744;7.086;2024-02-28T12:48:41;21.98;;;15.23;;
15764;SDS011;7983;50.744;7.086;2024-02-28T12:51:10;20.95;;;14.23;;
15764;SDS011;7983;50.744;7.086;2024-02-28T12:53:45;21.30;;;15.18;;
15764;SDS011;7983;50.744;7.086;2024-02-28T12:56:14;19.30;;;14.18;;
15764;SDS011;7983;50.744;7.086;2024-02-28T12:58:39;21.75;;;14.45;;
15764;SDS011;7983;50.744;7.086;2024-02-28T13:01:05;18.38;;;13.70;;
15764;SDS011;7983;50.744;7.086;2024-02-28T13:03:31;19.42;;;13.38;;
15764;SDS011;7983;50.744;7.086;2024-02-28T13:06:01;18.00;;;13.10;;
15764;SDS011;7983;50.744;7.086;2024-02-28T13:08:26;19.42;;;14.07;;
15764;SDS011;7983;50.744;7.086;2024-02-28T13:10:52;17.40;;;12.13;;
15764;SDS011;7983;50.744;7.086;2024-02-28T13:13:18;19.58;;;12.43;;
15764;SDS011;7983;50.744;7.086;2024-02-28T13:15:44;19.67;;;13.80;;
15764;SDS011;7983;50.744;7.086;2024-02-28T13:18:15;19.63;;;13.75;;
15764;SDS011;7983;50.744;7.086;2024-02-28T13:20:43;18.80;;;13.50;;
15764;SDS011;7983;50.744;7.086;2024-02-28T13:23:13;18.08;;;13.32;;
15764;SDS011;7983;50.744;7.086;2024-02-28T13:25:38;16.60;;;12.35;;
15764;SDS011;7983;50.744;7.086;2024-02-28T13:28:09;17.55;;;12.73;;
15764;SDS011;7983;50.744;7.086;2024-02-28T13:30:35;15.25;;;11.95;;
15764;SDS011;7983;50.744;7.086;2024-02-28T13:33:02;15.60;;;11.63;;
15764;SDS011;7983;50.744;7.086;2024-02-28T13:35:29;15.57;;;11.25;;
15764;SDS011;7983;50.744;7.086;2024-02-28T13:37:58;15.43;;;11.75;;
15764;SDS011;7983;50.744;7.086;2024-02-28T13:40:26;15.48;;;11.10;;
15764;SDS011;7983;50.744;7.086;2024-02-28T13:42:55;13.07;;;9.77;;
15764;SDS011;7983;50.744;7.086;2024-02-28T13:45:20;14.45;;;10.30;;
15764;SDS011;7983;50.744;7.086;2024-02-28T13:47:51;12.90;;;9.40;;
15764;SDS011;7983;50.744;7.086;2024-02-28T13:50:16;13.38;;;9.27;;
15764;SDS011;7983;50.744;7.086;2024-02-28T13:52:42;12.77;;;9.25;;
15764;SDS011;7983;50.744;7.086;2024-02-28T13:55:10;12.52;;;9.43;;
15764;SDS011;7983;50.744;7.086;2024-02-28T13:57:38;12.25;;;8.82;;
15764;SDS011;7983;50.744;7.086;2024-02-28T14:00:06;11.25;;;8.15;;
15764;SDS011;7983;50.744;7.086;2024-02-28T14:02:39;10.80;;;7.80;;
15764;SDS011;7983;50.744;7.086;2024-02-28T14:05:05;12.10;;;7.88;;
15764;SDS011;7983;50.744;7.086;2024-02-28T14:07:32;11.85;;;8.52;;
15764;SDS011;7983;50.744;7.086;2024-02-28T14:09:58;10.38;;;7.70;;
15764;SDS011;7983;50.744;7.086;2024-02-28T14:12:24;9.57;;;7.10;;
15764;SDS011;7983;50.744;7.086;2024-02-28T14:14:52;9.40;;;7.28;;
15764;SDS011;7983;50.744;7.086;2024-02-28T14:17:18;10.02;;;7.88;;
15764;SDS011;7983;50.744;7.086;2024-02-28T14:19:49;10.00;;;7.45;;
15764;SDS011;7983;50.744;7.086;2024-02-28T14:22:14;10.90;;;7.65;;
15764;SDS011;7983;50.744;7.086;2024-02-28T14:24:40;10.75;;;8.43;;
15764;SDS011;7983;50.744;7.086;2024-02-28T14:27:05;11.15;;;7.70;;
15764;SDS011;7983;50.744;7.086;2024-02-28T14:29:31;10.25;;;7.30;;
15764;SDS011;7983;50.744;7.086;2024-02-28T14:31:57;9.45;;;6.78;;
15764;SDS011;7983;50.744;7.086;2024-02-28T14:34:22;10.50;;;7.90;;